createdAt,value
2022-12-05T00:01:31.451Z,15.80
2022-12-05T00:04:01.894Z,15.50
2022-12-05T00:06:31.138Z,16.13
2022-12-05T00:08:59.225Z,17.03
2022-12-05T00:11:29.011Z,18.03
2022-12-05T00:13:58.636Z,17.60
2022-12-05T00:16:28.041Z,18.47
2022-12-05T00:18:56.386Z,19.27
2022-12-05T00:21:27.100Z,18.83
2022-12-05T00:23:56.559Z,17.93
2022-12-05T00:26:24.310Z,18.30
2022-12-05T00:28:52.179Z,18.27
2022-12-05T00:31:23.682Z,19.90
2022-12-05T00:33:52.013Z,18.83
2022-12-05T00:36:26.050Z,18.00
2022-12-05T00:38:54.489Z,18.77
2022-12-05T00:41:26.097Z,18.47
2022-12-05T00:43:54.655Z,18.97
2022-12-05T00:46:25.043Z,16.53
2022-12-05T00:48:56.838Z,16.47
2022-12-05T00:51:43.734Z,17.83
2022-12-05T00:54:13.485Z,16.57
2022-12-05T00:56:40.926Z,15.83
2022-12-05T00:59:09.204Z,14.57
2022-12-05T01:01:39.852Z,14.63
2022-12-05T01:04:10.897Z,14.47
2022-12-05T01:06:38.872Z,13.33
2022-12-05T01:09:07.064Z,13.87
2022-12-05T01:11:40.761Z,13.77
2022-12-05T01:14:10.293Z,12.93
2022-12-05T01:16:39.445Z,14.13
2022-12-05T01:19:11.794Z,13.40
2022-12-05T01:21:39.241Z,13.53
2022-12-05T01:24:06.887Z,12.60
2022-12-05T01:26:34.260Z,13.17
2022-12-05T01:29:01.673Z,13.03
2022-12-05T01:31:32.055Z,13.10
2022-12-05T01:34:01.527Z,13.20
2022-12-05T01:36:29.727Z,13.23
2022-12-05T01:38:57.525Z,12.47
2022-12-05T01:41:31.349Z,13.43
2022-12-05T01:44:27.491Z,13.27
2022-12-05T01:46:56.598Z,12.80
2022-12-05T01:49:26.594Z,12.73
2022-12-05T01:51:58.532Z,12.80
2022-12-05T01:54:26.238Z,12.33
2022-12-05T01:57:00.303Z,11.23
2022-12-05T01:59:34.332Z,12.50
2022-12-05T02:02:02.512Z,12.27
2022-12-05T02:04:30.154Z,12.87
2022-12-05T02:06:57.887Z,11.13
2022-12-05T02:09:25.244Z,11.50
2022-12-05T02:11:59.796Z,11.40
2022-12-05T02:14:48.138Z,11.27
2022-12-05T02:17:31.269Z,10.60
2022-12-05T02:20:13.043Z,10.97
2022-12-05T02:23:02.114Z,12.27
2022-12-05T02:25:56.337Z,11.17
2022-12-05T02:28:32.610Z,11.17
2022-12-05T02:31:26.564Z,11.43
2022-12-05T02:34:05.328Z,11.53
2022-12-05T02:36:45.731Z,11.03
2022-12-05T02:39:23.409Z,11.70
2022-12-05T02:41:56.542Z,16.60
2022-12-05T02:44:29.273Z,15.20
2022-12-05T02:46:58.467Z,13.50
2022-12-05T02:49:32.829Z,12.37
2022-12-05T02:52:02.755Z,12.13
2022-12-05T02:54:33.637Z,12.33
2022-12-05T02:57:01.294Z,14.00
2022-12-05T02:59:29.205Z,13.50
2022-12-05T03:01:57.197Z,13.40
2022-12-05T03:04:26.150Z,12.83
2022-12-05T03:07:14.371Z,12.53
2022-12-05T03:09:47.338Z,12.67
2022-12-05T03:12:32.065Z,12.37
2022-12-05T03:15:05.620Z,12.77
2022-12-05T03:17:40.488Z,12.57
2022-12-05T03:20:08.199Z,12.97
2022-12-05T03:22:40.847Z,12.57
2022-12-05T03:25:09.015Z,12.63
2022-12-05T03:27:50.982Z,12.50
2022-12-05T03:30:21.751Z,12.80
2022-12-05T03:33:05.309Z,12.83
2022-12-05T03:36:06.568Z,13.43
2022-12-05T03:38:39.474Z,12.70
2022-12-05T03:41:17.900Z,13.17
2022-12-05T03:43:52.740Z,12.77
2022-12-05T03:46:47.888Z,13.07
2022-12-05T03:49:30.581Z,12.47
2022-12-05T03:52:12.517Z,12.93
2022-12-05T03:55:06.375Z,13.20
2022-12-05T03:57:36.102Z,13.40
2022-12-05T04:00:09.971Z,13.03
2022-12-05T04:02:47.661Z,12.43
2022-12-05T04:05:22.415Z,12.20
2022-12-05T04:08:00.531Z,12.50
2022-12-05T04:10:30.956Z,13.00
2022-12-05T04:13:17.816Z,13.17
2022-12-05T04:16:08.728Z,12.43
2022-12-05T04:18:39.365Z,11.87
2022-12-05T04:21:26.149Z,12.10
2022-12-05T04:24:13.487Z,11.77
2022-12-05T04:26:48.317Z,10.53
2022-12-05T04:29:25.616Z,10.17
2022-12-05T04:31:58.526Z,12.37
2022-12-05T04:34:29.382Z,12.53
2022-12-05T04:37:02.823Z,11.30
2022-12-05T04:39:55.705Z,10.60
2022-12-05T04:42:28.107Z,10.57
2022-12-05T04:45:02.097Z,11.13
2022-12-05T04:47:36.504Z,10.63
2022-12-05T04:50:06.188Z,11.03
2022-12-05T04:52:34.896Z,11.07
2022-12-05T04:55:12.253Z,10.80
2022-12-05T04:57:52.353Z,10.73
2022-12-05T05:00:19.946Z,11.27
2022-12-05T05:03:03.935Z,10.67
2022-12-05T05:05:32.873Z,11.30
2022-12-05T05:08:00.876Z,11.27
2022-12-05T05:10:39.819Z,11.47
2022-12-05T05:13:07.155Z,10.40
2022-12-05T05:15:34.620Z,10.90
2022-12-05T05:18:02.031Z,10.47
2022-12-05T05:20:29.752Z,10.70
2022-12-05T05:22:58.516Z,13.10
2022-12-05T05:25:26.664Z,24.67
2022-12-05T05:27:56.297Z,12.17
2022-12-05T05:30:25.122Z,11.77
2022-12-05T05:32:52.775Z,12.33
2022-12-05T05:35:21.549Z,12.63
2022-12-05T05:37:49.074Z,12.33
2022-12-05T05:40:16.565Z,13.13
2022-12-05T05:42:49.253Z,11.20
2022-12-05T05:45:17.268Z,10.97
2022-12-05T05:47:44.971Z,11.67
2022-12-05T05:50:17.776Z,11.70
2022-12-05T05:52:48.558Z,11.03
2022-12-05T05:55:16.355Z,11.00
2022-12-05T05:57:43.651Z,10.80
2022-12-05T06:00:11.547Z,10.60
2022-12-05T06:02:39.025Z,12.07
2022-12-05T06:05:07.152Z,10.57
2022-12-05T06:07:34.472Z,11.47
2022-12-05T06:10:02.213Z,11.87
2022-12-05T06:12:29.709Z,12.27
2022-12-05T06:14:57.138Z,12.10
2022-12-05T06:17:24.418Z,11.83
2022-12-05T06:19:51.862Z,11.50
2022-12-05T06:22:19.185Z,12.13
2022-12-05T06:24:46.499Z,11.53
2022-12-05T06:27:14.117Z,13.37
2022-12-05T06:29:41.888Z,13.10
2022-12-05T06:32:09.458Z,13.00
2022-12-05T06:34:37.069Z,13.00
2022-12-05T06:37:04.640Z,12.73
2022-12-05T06:39:32.122Z,12.37
2022-12-05T06:41:59.571Z,11.83
2022-12-05T06:44:27.140Z,12.20
2022-12-05T06:46:55.024Z,11.87
2022-12-05T06:49:30.694Z,11.50
2022-12-05T06:52:00.067Z,12.23
2022-12-05T06:54:27.425Z,13.23
2022-12-05T06:56:54.721Z,13.23
2022-12-05T06:59:22.316Z,13.40
2022-12-05T07:01:50.487Z,13.10
2022-12-05T07:04:21.522Z,14.03
2022-12-05T07:06:51.117Z,12.87
2022-12-05T07:09:21.176Z,13.43
2022-12-05T07:11:52.053Z,12.93
2022-12-05T07:14:45.371Z,13.67
2022-12-05T07:17:07.234Z,13.87
2022-12-05T07:19:34.823Z,13.63
2022-12-05T07:22:02.134Z,14.63
2022-12-05T07:24:29.585Z,13.90
2022-12-05T07:26:57.119Z,14.17
2022-12-05T07:29:24.388Z,14.50
2022-12-05T07:31:53.511Z,14.43
2022-12-05T07:34:20.869Z,14.43
2022-12-05T07:36:48.451Z,15.83
2022-12-05T07:39:16.263Z,18.93
2022-12-05T07:41:43.577Z,21.53
2022-12-05T07:44:16.528Z,18.37
2022-12-05T07:46:44.007Z,19.73
2022-12-05T07:49:11.441Z,17.00
2022-12-05T07:51:38.967Z,16.97
2022-12-05T07:54:06.851Z,18.10
2022-12-05T07:56:34.230Z,18.30
2022-12-05T07:59:01.551Z,19.27
2022-12-05T08:01:30.144Z,16.87
2022-12-05T08:03:59.779Z,16.27
2022-12-05T08:06:29.488Z,16.63
2022-12-05T08:08:57.537Z,19.07
2022-12-05T08:11:35.773Z,16.50
2022-12-05T08:14:05.538Z,16.47
2022-12-05T08:16:33.600Z,17.10
2022-12-05T08:19:10.480Z,18.50
2022-12-05T08:21:37.780Z,16.93
2022-12-05T08:24:06.825Z,15.77
2022-12-05T08:26:36.263Z,16.83
2022-12-05T08:29:09.658Z,16.43
2022-12-05T08:31:40.969Z,17.13
2022-12-05T08:34:08.388Z,16.13
2022-12-05T08:36:35.680Z,17.30
2022-12-05T08:39:06.681Z,16.17
2022-12-05T08:41:34.535Z,16.73
2022-12-05T08:44:05.756Z,16.03
2022-12-05T08:46:35.863Z,15.77
2022-12-05T08:49:04.504Z,16.90
2022-12-05T08:51:32.470Z,16.00
2022-12-05T08:54:01.862Z,23.47
2022-12-05T08:56:29.433Z,19.07
2022-12-05T08:59:03.180Z,20.70
2022-12-05T09:01:33.551Z,20.57
2022-12-05T09:04:02.472Z,17.50
2022-12-05T09:06:30.581Z,16.13
2022-12-05T09:09:04.712Z,14.87
2022-12-05T09:11:35.509Z,17.27
2022-12-05T09:14:04.888Z,15.87
2022-12-05T09:16:38.188Z,15.33
2022-12-05T09:19:27.708Z,15.40
2022-12-05T09:21:56.194Z,15.43
2022-12-05T09:24:23.759Z,16.50
2022-12-05T09:26:51.637Z,16.83
2022-12-05T09:29:19.116Z,20.83
2022-12-05T09:31:48.443Z,15.60
2022-12-05T09:34:18.478Z,16.83
2022-12-05T09:36:55.627Z,15.13
2022-12-05T09:39:28.949Z,15.10
2022-12-05T09:42:30.349Z,15.83
2022-12-05T09:45:17.388Z,15.17
2022-12-05T09:48:01.575Z,18.60
2022-12-05T09:50:53.401Z,17.30
2022-12-05T09:53:35.913Z,15.13
2022-12-05T09:56:09.290Z,16.23
2022-12-05T09:58:49.913Z,16.50
2022-12-05T10:01:49.048Z,14.93
2022-12-05T10:04:55.634Z,15.87
2022-12-05T10:07:51.843Z,15.23
2022-12-05T10:10:48.305Z,15.20
2022-12-05T10:13:24.190Z,16.27
2022-12-05T10:15:57.550Z,17.23
2022-12-05T10:18:41.827Z,15.33
2022-12-05T10:21:09.109Z,16.67
2022-12-05T10:23:59.582Z,17.73
2022-12-05T10:26:36.010Z,15.83
2022-12-05T10:29:21.944Z,19.43
2022-12-05T10:31:54.689Z,17.97
2022-12-05T10:34:30.381Z,16.50
2022-12-05T10:37:09.561Z,15.53
2022-12-05T10:39:38.025Z,15.87
2022-12-05T10:42:06.574Z,15.50
2022-12-05T10:44:34.718Z,15.57
2022-12-05T10:47:02.279Z,16.90
2022-12-05T10:49:31.203Z,16.60
2022-12-05T10:52:00.649Z,15.30
2022-12-05T10:54:30.867Z,16.43
2022-12-05T10:56:58.760Z,16.50
2022-12-05T10:59:47.701Z,17.07
2022-12-05T11:02:44.426Z,19.17
2022-12-05T11:05:12.286Z,16.07
2022-12-05T11:07:49.528Z,16.33
2022-12-05T11:10:26.627Z,17.67
2022-12-05T11:12:57.960Z,17.00
2022-12-05T11:15:28.216Z,14.80
2022-12-05T11:17:58.804Z,15.23
2022-12-05T11:20:26.104Z,15.03
2022-12-05T11:22:55.074Z,14.27
2022-12-05T11:25:33.712Z,15.27
2022-12-05T11:28:16.333Z,15.93
2022-12-05T11:31:22.552Z,16.27
2022-12-05T11:34:22.487Z,16.53
2022-12-05T11:37:10.705Z,16.87
2022-12-05T11:39:38.136Z,15.77
2022-12-05T11:42:14.093Z,16.73
2022-12-05T11:44:55.991Z,16.50
2022-12-05T11:47:50.727Z,15.57
2022-12-05T11:50:44.831Z,16.30
2022-12-05T11:53:28.085Z,15.80
2022-12-05T11:56:07.072Z,15.10
2022-12-05T11:58:44.894Z,16.43
2022-12-05T12:01:40.198Z,15.87
2022-12-05T12:04:20.197Z,15.93
2022-12-05T12:06:59.801Z,15.40
2022-12-05T12:09:29.884Z,16.17
2022-12-05T12:12:18.733Z,16.73
2022-12-05T12:15:30.444Z,19.23
2022-12-05T12:18:16.591Z,22.73
2022-12-05T12:21:18.166Z,19.57
2022-12-05T12:23:57.355Z,18.57
2022-12-05T12:26:49.399Z,19.80
2022-12-05T12:29:25.628Z,15.70
2022-12-05T12:32:09.953Z,17.10
2022-12-05T12:34:58.239Z,18.00
2022-12-05T12:37:26.097Z,20.13
2022-12-05T12:40:14.216Z,19.23
2022-12-05T12:43:37.673Z,19.07
2022-12-05T12:46:14.736Z,25.87
2022-12-05T12:49:03.987Z,21.17
2022-12-05T12:51:33.525Z,28.53
2022-12-05T12:54:40.409Z,31.57
2022-12-05T12:57:16.058Z,31.33
2022-12-05T12:59:58.203Z,26.33
2022-12-05T13:02:47.688Z,23.33
2022-12-05T13:05:35.099Z,23.73
2022-12-05T13:08:10.188Z,24.50
2022-12-05T13:10:41.231Z,28.10
2022-12-05T13:13:20.348Z,27.50
2022-12-05T13:15:56.941Z,24.77
2022-12-05T13:18:25.738Z,29.30
2022-12-05T13:20:56.876Z,26.10
2022-12-05T13:23:30.879Z,27.80
2022-12-05T13:26:00.158Z,26.90
2022-12-05T13:28:32.373Z,27.43
2022-12-05T13:31:03.798Z,28.63
2022-12-05T13:33:45.604Z,26.27
2022-12-05T13:36:38.293Z,25.90
2022-12-05T13:39:35.284Z,35.17
2022-12-05T13:42:15.403Z,35.03
2022-12-05T13:44:53.520Z,28.67
2022-12-05T13:47:32.300Z,26.43
2022-12-05T13:50:09.863Z,23.30
2022-12-05T13:52:48.950Z,23.33
2022-12-05T13:55:36.200Z,25.40
2022-12-05T13:58:32.857Z,26.20
2022-12-05T14:01:26.059Z,34.30
2022-12-05T14:03:56.158Z,29.93
2022-12-05T14:06:38.778Z,28.63
2022-12-05T14:09:17.909Z,26.23
2022-12-05T14:12:09.943Z,25.93
2022-12-05T14:15:23.748Z,29.93
2022-12-05T14:18:14.884Z,26.23
2022-12-05T14:21:03.703Z,26.67
2022-12-05T14:23:47.290Z,27.27
2022-12-05T14:26:31.997Z,29.73
2022-12-05T14:29:13.762Z,30.00
2022-12-05T14:32:03.816Z,26.70
2022-12-05T14:34:35.250Z,24.47
2022-12-05T14:37:04.139Z,29.03
2022-12-05T14:39:43.336Z,31.67
2022-12-05T14:42:21.749Z,25.10
2022-12-05T14:44:56.064Z,23.77
2022-12-05T14:47:32.906Z,41.37
2022-12-05T14:50:36.992Z,79.50
2022-12-05T14:53:35.173Z,33.30
2022-12-05T14:56:11.631Z,30.47
2022-12-05T14:58:41.954Z,24.60
2022-12-05T15:01:33.423Z,22.43
2022-12-05T15:04:07.355Z,23.03
2022-12-05T15:06:56.239Z,31.73
2022-12-05T15:09:37.045Z,52.30
2022-12-05T15:12:12.137Z,31.23
2022-12-05T15:14:52.952Z,66.37
2022-12-05T15:17:25.880Z,38.40
2022-12-05T15:20:25.747Z,24.93
2022-12-05T15:22:53.386Z,21.37
2022-12-05T15:25:24.153Z,22.57
2022-12-05T15:27:57.441Z,23.57
2022-12-05T15:30:25.051Z,22.57
2022-12-05T15:32:59.041Z,22.63
2022-12-05T15:35:31.880Z,22.10
2022-12-05T15:38:27.558Z,19.53
2022-12-05T15:40:55.654Z,20.03
2022-12-05T15:43:32.472Z,21.20
2022-12-05T15:46:24.554Z,20.03
2022-12-05T15:48:53.883Z,19.90
2022-12-05T15:51:29.632Z,23.47
2022-12-05T15:54:05.511Z,19.50
2022-12-05T15:56:41.379Z,12.97
2022-12-05T15:59:21.112Z,12.90
2022-12-05T16:01:57.755Z,10.50
2022-12-05T16:04:31.695Z,11.73
2022-12-05T16:07:03.627Z,11.17
2022-12-05T16:09:33.781Z,11.60
2022-12-05T16:12:05.782Z,11.37
2022-12-05T16:17:42.983Z,12.43
2022-12-05T16:20:32.177Z,11.40
2022-12-05T16:23:30.255Z,11.67
2022-12-05T16:26:20.754Z,12.33
2022-12-05T16:29:01.697Z,11.37
2022-12-05T16:31:30.521Z,12.27
2022-12-05T16:34:16.581Z,12.27
2022-12-05T16:36:49.707Z,12.77
2022-12-05T16:39:19.577Z,18.20
2022-12-05T16:41:48.054Z,16.77
2022-12-05T16:44:28.161Z,12.83
2022-12-05T16:46:56.721Z,12.87
2022-12-05T16:49:30.256Z,19.73
2022-12-05T16:52:14.366Z,12.17
2022-12-05T16:54:46.136Z,15.43
2022-12-05T16:57:15.162Z,20.23
2022-12-05T16:59:44.214Z,25.37
2022-12-05T17:02:18.011Z,26.57
2022-12-05T17:04:46.987Z,26.93
2022-12-05T17:07:14.376Z,12.83
2022-12-05T17:09:41.689Z,11.03
2022-12-05T17:12:18.673Z,11.20
2022-12-05T17:14:47.344Z,19.73
2022-12-05T17:17:16.019Z,12.60
2022-12-05T17:19:43.650Z,11.73
2022-12-05T17:22:13.130Z,12.30
2022-12-05T17:24:40.475Z,10.67
2022-12-05T17:27:14.332Z,10.30
2022-12-05T17:29:41.662Z,10.53
2022-12-05T17:32:11.306Z,12.23
2022-12-05T17:34:38.601Z,12.30
2022-12-05T17:37:05.923Z,10.60
2022-12-05T17:39:33.332Z,10.47
2022-12-05T17:42:00.644Z,11.13
2022-12-05T17:44:28.225Z,11.87
2022-12-05T17:46:55.688Z,10.53
2022-12-05T17:49:23.991Z,11.20
2022-12-05T17:52:20.557Z,10.67
2022-12-05T17:54:41.266Z,25.27
2022-12-05T17:57:08.599Z,34.57
2022-12-05T17:59:36.094Z,33.20
2022-12-05T18:02:03.661Z,25.23
2022-12-05T18:04:31.350Z,16.63
2022-12-05T18:06:58.815Z,12.03
2022-12-05T18:09:26.321Z,11.50
2022-12-05T18:11:53.952Z,11.70
2022-12-05T18:14:21.240Z,12.63
2022-12-05T18:16:49.236Z,16.30
2022-12-05T18:19:16.768Z,15.87
2022-12-05T18:24:16.437Z,14.97
2022-12-05T18:26:44.240Z,30.53
2022-12-05T18:29:11.709Z,36.53
2022-12-05T18:31:41.975Z,26.27
2022-12-05T18:34:09.405Z,22.60
2022-12-05T18:36:36.697Z,22.10
2022-12-05T18:39:04.251Z,39.77
2022-12-05T18:41:31.850Z,36.63
2022-12-05T18:43:59.179Z,29.37
2022-12-05T18:46:26.634Z,19.53
2022-12-05T18:48:55.781Z,24.03
2022-12-05T18:51:25.351Z,35.23
2022-12-05T18:53:54.233Z,39.10
2022-12-05T18:56:30.630Z,31.00
2022-12-05T18:59:05.075Z,19.83
2022-12-05T19:01:34.755Z,23.57
2022-12-05T19:04:04.873Z,14.80
2022-12-05T19:06:34.323Z,31.57
2022-12-05T19:09:04.980Z,21.07
2022-12-05T19:11:32.937Z,28.20
2022-12-05T19:14:05.561Z,42.77
2022-12-05T19:16:35.082Z,24.43
2022-12-05T19:19:04.821Z,15.43
2022-12-05T19:21:33.675Z,13.60
2022-12-05T19:24:03.247Z,12.33
2022-12-05T19:26:30.662Z,13.27
2022-12-05T19:28:58.473Z,14.00
2022-12-05T19:31:28.943Z,13.50
2022-12-05T19:34:00.521Z,15.70
2022-12-05T19:36:35.724Z,16.07
2022-12-05T19:39:09.262Z,21.03
2022-12-05T19:41:37.245Z,18.93
2022-12-05T19:44:05.262Z,14.97
2022-12-05T19:46:34.137Z,10.23
2022-12-05T19:49:04.327Z,9.73
2022-12-05T19:51:32.628Z,9.43
2022-12-05T19:54:01.657Z,12.27
2022-12-05T19:56:30.700Z,18.30
2022-12-05T19:58:59.224Z,20.07
2022-12-05T20:01:35.188Z,21.13
2022-12-05T20:04:10.855Z,15.47
2022-12-05T20:06:44.113Z,11.23
2022-12-05T20:09:13.058Z,14.20
2022-12-05T20:11:43.774Z,12.17
2022-12-05T20:14:12.926Z,10.30
2022-12-05T20:16:40.696Z,14.20
2022-12-05T20:19:09.591Z,13.90
2022-12-05T20:21:39.670Z,12.10
2022-12-05T20:24:07.932Z,14.77
2022-12-05T20:26:38.244Z,9.50
2022-12-05T20:29:06.525Z,9.40
2022-12-05T20:31:36.461Z,9.80
2022-12-05T20:34:05.575Z,9.97
2022-12-05T20:36:34.895Z,9.60
2022-12-05T20:39:08.566Z,9.33
2022-12-05T20:41:36.124Z,10.00
2022-12-05T20:44:06.610Z,9.97
2022-12-05T20:46:35.339Z,11.23
2022-12-05T20:49:03.109Z,12.30
2022-12-05T20:51:33.492Z,10.97
2022-12-05T20:54:03.919Z,10.97
2022-12-05T20:56:33.249Z,9.63
2022-12-05T20:59:04.052Z,10.00
2022-12-05T21:01:34.064Z,11.10
2022-12-05T21:04:02.336Z,10.30
2022-12-05T21:06:35.360Z,10.30
2022-12-05T21:09:05.500Z,10.30
2022-12-05T21:11:33.273Z,10.47
2022-12-05T21:14:00.851Z,11.00
2022-12-05T21:16:28.680Z,11.10
2022-12-05T21:18:56.525Z,9.77
2022-12-05T21:21:25.970Z,10.70
2022-12-05T21:23:59.184Z,11.13
2022-12-05T21:26:29.213Z,11.00
2022-12-05T21:28:57.227Z,12.67
2022-12-05T21:31:37.011Z,11.97
2022-12-05T21:34:06.928Z,11.57
2022-12-05T21:36:35.824Z,12.97
2022-12-05T21:39:04.067Z,12.70
2022-12-05T21:41:32.091Z,11.67
2022-12-05T21:44:00.894Z,12.37
2022-12-05T21:46:28.640Z,13.03
2022-12-05T21:48:56.115Z,11.60
2022-12-05T21:51:23.851Z,12.83
2022-12-05T21:53:51.953Z,12.53
2022-12-05T21:56:25.840Z,12.40
2022-12-05T21:58:53.572Z,12.57
2022-12-05T22:01:27.404Z,12.57
2022-12-05T22:04:01.460Z,12.47
2022-12-05T22:06:34.092Z,14.33
2022-12-05T22:09:01.926Z,13.33
2022-12-05T22:11:29.411Z,13.33
2022-12-05T22:13:56.754Z,12.50
2022-12-05T22:16:29.163Z,12.80
2022-12-05T22:19:00.414Z,11.60
2022-12-05T22:21:28.279Z,12.97
2022-12-05T22:23:56.524Z,11.63
2022-12-05T22:26:25.535Z,11.50
2022-12-05T22:28:54.780Z,11.90
2022-12-05T22:31:23.525Z,10.63
2022-12-05T22:33:51.038Z,11.40
2022-12-05T22:36:19.648Z,12.33
2022-12-05T22:38:48.237Z,12.50
2022-12-05T22:41:19.490Z,12.73
2022-12-05T22:43:48.952Z,12.33
2022-12-05T22:46:19.115Z,12.43
2022-12-05T22:48:48.022Z,12.47
2022-12-05T22:51:17.139Z,12.47
2022-12-05T22:53:44.988Z,11.87
2022-12-05T22:56:17.837Z,12.00
2022-12-05T22:58:46.815Z,12.73
2022-12-05T23:01:17.045Z,12.57
2022-12-05T23:03:46.214Z,12.77
2022-12-05T23:06:16.522Z,12.73
2022-12-05T23:08:45.655Z,12.33
2022-12-05T23:11:13.158Z,12.23
2022-12-05T23:13:40.973Z,12.90
2022-12-05T23:16:22.238Z,12.37
2022-12-05T23:18:51.256Z,12.13
2022-12-05T23:21:36.672Z,11.77
2022-12-05T23:24:12.640Z,12.30
2022-12-05T23:26:43.189Z,12.43
2022-12-05T23:29:12.423Z,12.33
2022-12-05T23:31:41.188Z,12.63
2022-12-05T23:34:09.198Z,12.73
2022-12-05T23:36:36.910Z,12.40
2022-12-05T23:39:05.874Z,12.70
2022-12-05T23:41:33.230Z,9.33
2022-12-05T23:44:00.866Z,8.23
2022-12-05T23:46:28.913Z,7.47
2022-12-05T23:48:57.441Z,5.27
2022-12-05T23:51:27.072Z,5.23
2022-12-05T23:53:59.558Z,4.73
2022-12-05T23:56:29.988Z,5.53
2022-12-05T23:58:58.666Z,6.33
